Time;durP1;ratioP1;P1;durP2;ratioP2;P2;SDS_P1;SDS_P2;PMS_P1;PMS_P2;Temp;Humidity;BMP_temperature;BMP_pressure;BME280_temperature;BME280_humidity;BME280_pressure;Samples;Min_cycle;Max_cycle;Signal;HPM_P1;HPM_P2
2024/04/09 00:00:42;;;;;;;9.27;7.20;;;14.70;99.90;;;;;;5374802;26;20271;-84
2024/04/09 00:03:14;;;;;;;7.80;6.97;;;14.70;99.90;;;;;;5372828;26;20847;-84
2024/04/09 00:05:40;;;;;;;9.27;7.80;;;14.70;99.90;;;;;;5365307;26;20711;-84
2024/04/09 00:08:10;;;;;;;9.23;7.13;;;14.60;99.90;;;;;;5353775;26;20336;-84
2024/04/09 00:10:36;;;;;;;9.77;7.30;;;14.60;99.90;;;;;;5364582;26;21047;-83
2024/04/09 00:13:06;;;;;;;9.50;7.27;;;14.60;99.90;;;;;;5370349;26;20656;-84
2024/04/09 00:15:33;;;;;;;8.33;7.47;;;14.60;99.90;;;;;;5365830;26;20253;-84
2024/04/09 00:18:12;;;;;;;9.37;7.53;;;14.60;99.90;;;;;;5369216;26;20244;-84
2024/04/09 00:20:42;;;;;;;9.97;7.40;;;14.70;99.90;;;;;;5375352;26;20256;-83
2024/04/09 00:23:16;;;;;;;10.00;7.70;;;14.70;99.90;;;;;;5382976;26;20572;-83
2024/04/09 00:25:43;;;;;;;9.87;7.47;;;14.70;99.90;;;;;;5375703;26;20303;-82
2024/04/09 00:28:11;;;;;;;8.47;7.57;;;14.70;99.90;;;;;;5368776;26;20317;-85
2024/04/09 00:30:40;;;;;;;9.97;7.87;;;14.80;99.90;;;;;;5369661;26;20271;-82
2024/04/09 00:33:09;;;;;;;9.73;7.70;;;14.80;99.90;;;;;;5363124;26;20257;-83
2024/04/09 00:35:35;;;;;;;15.20;7.63;;;14.80;99.90;;;;;;5370352;26;20256;-84
2024/04/09 00:38:07;;;;;;;10.20;7.60;;;14.80;99.90;;;;;;5369848;26;20260;-83
2024/04/09 00:40:33;;;;;;;10.57;8.37;;;14.90;99.90;;;;;;5363955;26;20280;-82
2024/04/09 00:43:03;;;;;;;10.73;7.87;;;14.90;99.90;;;;;;5366913;26;20696;-83
2024/04/09 00:45:30;;;;;;;10.97;7.23;;;14.80;99.90;;;;;;5364357;26;20249;-83
2024/04/09 00:48:01;;;;;;;11.77;7.67;;;14.90;99.90;;;;;;5360658;26;20579;-82
2024/04/09 00:50:28;;;;;;;10.47;7.50;;;14.90;99.90;;;;;;5369332;26;20237;-82
2024/04/09 00:53:00;;;;;;;10.47;7.60;;;14.90;99.90;;;;;;5379918;26;20743;-83
2024/04/09 00:55:32;;;;;;;9.57;7.87;;;14.90;99.90;;;;;;5375948;26;20248;-86
2024/04/09 00:58:04;;;;;;;10.63;8.23;;;14.90;99.90;;;;;;5365094;26;20279;-83
2024/04/09 01:00:29;;;;;;;10.73;8.50;;;14.90;99.90;;;;;;5367101;26;20248;-84
2024/04/09 01:02:58;;;;;;;11.73;8.43;;;14.90;99.90;;;;;;5370908;26;20304;-82
2024/04/09 01:05:24;;;;;;;13.27;8.33;;;14.90;99.90;;;;;;5363974;26;20935;-87
2024/04/09 01:07:53;;;;;;;10.27;8.73;;;15.00;99.90;;;;;;5366189;26;21413;-82
2024/04/09 01:10:19;;;;;;;13.43;9.37;;;15.00;99.90;;;;;;5363793;26;20543;-83
2024/04/09 01:12:50;;;;;;;9.80;7.83;;;15.00;99.90;;;;;;5363682;26;20263;-83
2024/04/09 01:15:17;;;;;;;13.83;8.17;;;15.00;99.90;;;;;;5367938;26;20311;-85
2024/04/09 01:17:46;;;;;;;11.47;8.23;;;15.00;99.90;;;;;;5373802;26;20245;-84
2024/04/09 01:20:13;;;;;;;13.20;8.57;;;15.00;99.90;;;;;;5366933;26;20276;-83
2024/04/09 01:22:45;;;;;;;13.87;8.70;;;15.00;99.90;;;;;;5370536;26;20355;-83
2024/04/09 01:25:11;;;;;;;12.10;8.10;;;15.10;99.90;;;;;;5367725;26;20287;-83
2024/04/09 01:27:40;;;;;;;12.60;8.87;;;15.10;99.90;;;;;;5366617;26;20245;-84
2024/04/09 01:30:08;;;;;;;15.33;8.67;;;15.10;99.90;;;;;;5378707;26;20260;-85
2024/04/09 01:32:37;;;;;;;13.73;8.00;;;15.10;99.90;;;;;;5366668;26;20279;-82
2024/04/09 01:35:06;;;;;;;12.67;8.27;;;15.10;99.90;;;;;;5360562;26;20633;-83
2024/04/09 01:37:34;;;;;;;13.50;8.63;;;15.10;99.90;;;;;;5371271;26;20286;-82
2024/04/09 01:40:04;;;;;;;12.03;8.80;;;15.10;99.90;;;;;;5373312;26;20240;-83
2024/04/09 01:42:32;;;;;;;16.73;8.67;;;15.10;99.90;;;;;;5369494;26;20244;-82
2024/04/09 01:44:58;;;;;;;11.43;7.87;;;15.10;99.90;;;;;;5372020;26;20251;-83
2024/04/09 01:47:27;;;;;;;12.43;8.73;;;15.10;99.90;;;;;;5363783;26;21164;-83
2024/04/09 01:49:53;;;;;;;12.70;8.20;;;15.10;99.90;;;;;;5365135;26;20256;-82
2024/04/09 01:52:22;;;;;;;11.90;8.67;;;15.10;99.90;;;;;;5363501;26;20287;-83
2024/04/09 01:54:48;;;;;;;13.33;9.27;;;15.10;99.90;;;;;;5377604;26;20260;-84
2024/04/09 01:57:19;;;;;;;10.33;8.60;;;15.10;99.90;;;;;;5381037;26;20291;-83
2024/04/09 01:59:45;;;;;;;12.50;8.67;;;15.10;99.90;;;;;;5379310;26;20287;-83
2024/04/09 02:02:15;;;;;;;14.00;8.70;;;15.10;99.90;;;;;;5379138;26;20296;-85
2024/04/09 02:04:41;;;;;;;11.37;8.60;;;15.10;99.90;;;;;;5371948;26;20378;-84
2024/04/09 02:07:09;;;;;;;12.37;8.80;;;15.10;99.90;;;;;;5374375;26;20256;-85
2024/04/09 02:09:35;;;;;;;13.70;8.77;;;15.10;99.90;;;;;;5371688;26;20240;-88
2024/04/09 02:12:04;;;;;;;12.10;8.93;;;15.10;99.90;;;;;;5379604;26;20278;-87
2024/04/09 02:14:32;;;;;;;15.60;8.87;;;15.10;99.90;;;;;;5371644;26;20256;-83
2024/04/09 02:17:01;;;;;;;12.23;8.57;;;15.10;99.90;;;;;;5372482;26;20237;-84
2024/04/09 02:19:27;;;;;;;11.20;8.60;;;15.10;99.90;;;;;;5372044;26;20236;-83
2024/04/09 02:21:56;;;;;;;12.43;7.90;;;15.10;99.90;;;;;;5375281;26;20286;-83
2024/04/09 02:24:22;;;;;;;12.60;9.27;;;15.00;99.90;;;;;;5371927;26;20240;-85
2024/04/09 02:26:50;;;;;;;13.47;9.87;;;15.00;99.90;;;;;;5371560;26;20857;-85
2024/04/09 02:29:16;;;;;;;13.10;9.57;;;15.00;99.90;;;;;;5380580;26;20307;-84
2024/04/09 02:31:47;;;;;;;14.67;10.20;;;15.00;99.90;;;;;;5383341;26;20782;-83
2024/04/09 02:34:13;;;;;;;14.53;9.40;;;15.00;99.90;;;;;;5373944;26;20250;-82
2024/04/09 02:36:43;;;;;;;12.03;9.50;;;15.00;99.90;;;;;;5373054;26;20813;-83
2024/04/09 02:39:09;;;;;;;11.30;8.73;;;15.00;99.90;;;;;;5375265;26;20300;-84
2024/04/09 02:41:39;;;;;;;13.60;8.67;;;15.00;99.90;;;;;;5369798;26;20798;-84
2024/04/09 02:44:05;;;;;;;8.67;7.30;;;15.00;99.90;;;;;;5370135;26;20445;-85
2024/04/09 02:46:33;;;;;;;12.07;8.60;;;14.90;99.90;;;;;;5371464;26;20345;-83
2024/04/09 02:49:03;;;;;;;12.97;8.57;;;15.00;99.90;;;;;;5372864;26;20244;-82
2024/04/09 02:51:32;;;;;;;11.80;8.33;;;14.90;99.90;;;;;;5373438;26;20292;-82
2024/04/09 02:53:57;;;;;;;12.53;7.57;;;14.90;99.90;;;;;;5378277;26;20388;-82
2024/04/09 02:56:26;;;;;;;12.07;7.90;;;15.00;99.90;;;;;;5377465;26;20244;-83
2024/04/09 02:58:52;;;;;;;11.53;7.33;;;15.00;99.90;;;;;;5363716;26;20300;-82
2024/04/09 03:01:20;;;;;;;12.23;7.73;;;15.00;99.90;;;;;;5379376;26;20268;-83
2024/04/09 03:03:46;;;;;;;10.67;7.40;;;15.00;99.90;;;;;;5379855;26;20244;-86
2024/04/09 03:06:18;;;;;;;10.87;6.57;;;15.00;99.90;;;;;;5379892;26;20245;-84
2024/04/09 03:08:44;;;;;;;12.30;7.23;;;15.00;99.90;;;;;;5374587;26;20284;-82
2024/04/09 03:11:14;;;;;;;11.43;7.00;;;15.00;99.90;;;;;;5372276;26;20861;-82
2024/04/09 03:13:41;;;;;;;9.50;6.80;;;15.00;99.90;;;;;;5381395;26;20249;-86
2024/04/09 03:16:16;;;;;;;11.43;6.70;;;15.00;99.90;;;;;;5371308;26;20737;-82
2024/04/09 03:18:43;;;;;;;9.50;6.40;;;15.00;99.90;;;;;;5364379;26;20236;-83
2024/04/09 03:21:12;;;;;;;8.93;6.07;;;15.00;99.90;;;;;;5367637;26;20296;-83
2024/04/09 03:23:41;;;;;;;7.70;5.90;;;15.00;99.90;;;;;;5381359;26;20283;-83
2024/04/09 03:26:12;;;;;;;7.83;6.10;;;15.00;99.90;;;;;;5373445;26;20312;-83
2024/04/09 03:28:38;;;;;;;8.90;6.30;;;15.00;99.90;;;;;;5367083;26;20284;-83
2024/04/09 03:31:07;;;;;;;8.90;6.00;;;15.10;99.90;;;;;;5364785;26;20242;-83
2024/04/09 03:33:33;;;;;;;8.83;6.03;;;15.10;99.90;;;;;;5367461;26;20279;-82
2024/04/09 03:36:04;;;;;;;10.00;6.20;;;15.10;99.90;;;;;;5376939;26;20754;-83
2024/04/09 03:38:32;;;;;;;9.70;5.87;;;15.00;99.90;;;;;;5379228;26;20240;-83
2024/04/09 03:41:05;;;;;;;10.00;5.97;;;14.90;99.90;;;;;;5366885;26;20244;-83
2024/04/09 03:43:33;;;;;;;10.80;6.23;;;14.90;99.90;;;;;;5372382;26;20249;-83
2024/04/09 03:46:01;;;;;;;9.37;5.90;;;14.90;99.90;;;;;;5371652;26;20252;-83
2024/04/09 03:48:32;;;;;;;7.97;6.03;;;14.90;99.90;;;;;;5369899;26;20287;-83
2024/04/09 03:50:58;;;;;;;8.37;5.70;;;14.90;99.90;;;;;;5368023;26;20712;-83
2024/04/09 03:53:28;;;;;;;10.47;6.00;;;14.80;99.90;;;;;;5377352;26;20240;-84
2024/04/09 03:55:55;;;;;;;9.23;5.53;;;14.80;99.90;;;;;;5363374;26;20252;-84
2024/04/09 03:58:29;;;;;;;9.17;6.10;;;14.80;99.90;;;;;;5363388;26;21399;-84
2024/04/09 04:00:56;;;;;;;9.33;5.73;;;14.80;99.90;;;;;;5376528;26;20243;-83
2024/04/09 04:03:25;;;;;;;6.87;5.53;;;14.70;99.90;;;;;;5371670;26;20303;-85
2024/04/09 04:05:52;;;;;;;11.23;6.03;;;14.70;99.90;;;;;;5367880;26;20248;-84
2024/04/09 04:08:20;;;;;;;9.43;5.57;;;14.60;99.90;;;;;;5364526;26;20256;-84
2024/04/09 04:10:53;;;;;;;10.40;5.63;;;14.60;99.90;;;;;;5365779;26;20244;-84
2024/04/09 04:13:22;;;;;;;9.47;5.67;;;14.70;99.90;;;;;;5374650;26;20244;-84
2024/04/09 04:15:59;;;;;;;13.93;5.23;;;14.90;99.90;;;;;;5375882;26;20739;-83
2024/04/09 04:18:27;;;;;;;9.77;5.67;;;15.00;99.90;;;;;;5373152;26;20398;-81
2024/04/09 04:20:56;;;;;;;10.57;5.53;;;15.10;99.90;;;;;;5375014;26;20666;-83
2024/04/09 04:23:22;;;;;;;10.17;5.27;;;15.20;99.90;;;;;;5354134;26;21064;-83
2024/04/09 04:26:02;;;;;;;8.23;5.10;;;15.20;99.90;;;;;;5352805;26;20245;-83
2024/04/09 04:28:28;;;;;;;14.17;5.70;;;15.30;99.90;;;;;;5361135;26;21031;-83
2024/04/09 04:30:57;;;;;;;10.67;6.23;;;15.30;99.90;;;;;;5366387;26;20280;-82
2024/04/09 04:33:26;;;;;;;9.90;5.97;;;15.30;99.90;;;;;;5365729;26;22433;-84
2024/04/09 04:35:55;;;;;;;8.97;5.70;;;15.40;99.90;;;;;;5375094;26;20244;-84
2024/04/09 04:38:21;;;;;;;9.60;5.73;;;15.50;99.90;;;;;;5364543;26;20279;-83
2024/04/09 04:40:50;;;;;;;9.77;6.17;;;15.50;99.90;;;;;;5361388;26;20297;-85
2024/04/09 04:43:16;;;;;;;10.30;6.47;;;15.50;99.90;;;;;;5373184;26;20680;-84
2024/04/09 04:45:46;;;;;;;8.77;6.90;;;15.50;99.90;;;;;;5375569;26;20291;-84
2024/04/09 04:48:12;;;;;;;11.10;6.83;;;15.50;99.90;;;;;;5368168;26;20236;-84
2024/04/09 04:50:43;;;;;;;12.70;6.80;;;15.50;99.90;;;;;;5371868;26;20240;-83
2024/04/09 04:53:09;;;;;;;10.57;6.87;;;15.50;99.90;;;;;;5375064;26;20801;-84
2024/04/09 04:55:39;;;;;;;12.27;8.37;;;15.50;99.90;;;;;;5367438;26;20248;-83
2024/04/09 04:58:05;;;;;;;12.83;8.13;;;15.40;99.90;;;;;;5361313;26;20267;-83
2024/04/09 05:00:34;;;;;;;10.53;8.20;;;15.40;99.90;;;;;;5363770;26;20256;-84
2024/04/09 05:03:00;;;;;;;11.07;7.90;;;15.40;99.90;;;;;;5369948;26;20244;-84
2024/04/09 05:05:31;;;;;;;12.33;8.60;;;15.40;99.90;;;;;;5370514;26;20252;-84
2024/04/09 05:08:00;;;;;;;10.73;8.17;;;15.30;99.90;;;;;;5370026;26;20233;-84
2024/04/09 05:10:28;;;;;;;13.60;8.77;;;15.30;99.90;;;;;;5371494;26;20281;-84
2024/04/09 05:12:55;;;;;;;12.77;8.83;;;15.30;99.90;;;;;;5371031;26;20584;-83
2024/04/09 05:15:24;;;;;;;13.23;9.03;;;15.30;99.90;;;;;;5371349;26;20643;-83
2024/04/09 05:17:51;;;;;;;15.87;9.60;;;15.30;99.90;;;;;;5375137;26;20244;-83
2024/04/09 05:20:25;;;;;;;12.50;9.97;;;15.30;99.90;;;;;;5372106;26;20243;-82
2024/04/09 05:22:52;;;;;;;13.50;9.80;;;15.30;99.90;;;;;;5368737;26;20283;-84
2024/04/09 05:25:38;;;;;;;11.23;9.53;;;15.30;99.90;;;;;;5375012;26;20241;-88
2024/04/09 05:28:04;;;;;;;15.03;9.03;;;15.30;99.90;;;;;;5363358;26;20260;-85
2024/04/09 05:30:33;;;;;;;12.27;8.70;;;15.20;99.90;;;;;;5367243;26;20352;-86
2024/04/09 05:32:59;;;;;;;14.07;8.17;;;15.20;99.90;;;;;;5371960;26;20236;-85
2024/04/09 05:35:28;;;;;;;14.10;9.60;;;15.20;99.90;;;;;;5368054;26;20312;-86
2024/04/09 05:37:54;;;;;;;13.27;8.63;;;15.20;99.90;;;;;;5371335;26;20237;-83
2024/04/09 05:40:23;;;;;;;9.73;8.17;;;15.30;99.90;;;;;;5367554;26;20276;-83
2024/04/09 05:42:53;;;;;;;12.17;7.63;;;15.30;99.90;;;;;;5365498;26;20253;-84
2024/04/09 05:45:22;;;;;;;13.20;7.63;;;15.30;99.90;;;;;;5368353;26;20252;-84
2024/04/09 05:47:48;;;;;;;8.00;6.70;;;15.30;99.90;;;;;;5364032;26;20287;-84
2024/04/09 05:50:17;;;;;;;10.70;7.23;;;15.30;99.90;;;;;;5369316;26;20267;-83
2024/04/09 05:52:43;;;;;;;12.03;7.57;;;15.30;99.90;;;;;;5367293;26;20275;-86
2024/04/09 05:55:12;;;;;;;11.63;7.40;;;15.40;99.90;;;;;;5368001;26;20359;-83
2024/04/09 05:57:38;;;;;;;11.37;6.70;;;15.40;99.90;;;;;;5368302;26;20243;-84
2024/04/09 06:00:14;;;;;;;11.37;6.43;;;15.40;99.90;;;;;;5362048;26;20271;-86
2024/04/09 06:02:44;;;;;;;10.80;6.23;;;15.40;99.90;;;;;;5358235;26;20236;-85
2024/04/09 06:05:15;;;;;;;10.40;6.53;;;15.40;99.90;;;;;;5350699;26;20249;-84
2024/04/09 06:07:41;;;;;;;12.73;6.03;;;15.40;99.90;;;;;;5363217;26;20263;-84
2024/04/09 06:10:14;;;;;;;12.10;6.83;;;15.40;99.90;;;;;;5370858;26;20307;-86
2024/04/09 06:12:40;;;;;;;9.03;5.67;;;15.50;99.90;;;;;;5360821;26;20240;-86
2024/04/09 06:15:08;;;;;;;14.23;6.20;;;15.40;99.90;;;;;;5377002;26;20383;-87
2024/04/09 06:17:37;;;;;;;8.80;5.97;;;15.40;99.90;;;;;;5361946;26;20358;-86
2024/04/09 06:20:06;;;;;;;6.53;5.27;;;15.40;99.90;;;;;;5375992;26;20610;-86
2024/04/09 06:22:32;;;;;;;8.00;5.90;;;15.30;99.90;;;;;;5371175;26;20577;-87
2024/04/09 06:25:01;;;;;;;8.23;6.03;;;15.30;99.90;;;;;;5367302;26;20314;-86
2024/04/09 06:27:26;;;;;;;10.80;6.20;;;15.30;99.90;;;;;;5355198;26;21057;-86
2024/04/09 06:29:55;;;;;;;8.77;5.87;;;15.30;99.90;;;;;;5361080;26;20237;-86
2024/04/09 06:32:21;;;;;;;7.03;5.43;;;15.30;99.90;;;;;;5369370;26;20237;-86
2024/04/09 06:34:53;;;;;;;8.80;5.83;;;15.30;99.90;;;;;;5368951;26;20679;-86
2024/04/09 06:37:19;;;;;;;15.37;6.20;;;15.30;99.90;;;;;;5373404;26;21155;-85
2024/04/09 06:39:47;;;;;;;10.83;5.40;;;15.30;99.90;;;;;;5376389;26;20236;-87
2024/04/09 06:42:13;;;;;;;10.63;6.23;;;15.30;99.90;;;;;;5356364;26;20241;-86
2024/04/09 06:44:42;;;;;;;8.60;5.63;;;15.30;99.90;;;;;;5370691;26;20248;-86
2024/04/09 06:47:08;;;;;;;8.57;5.40;;;15.30;99.90;;;;;;5373289;26;20299;-87
2024/04/09 06:49:36;;;;;;;9.40;5.50;;;15.30;99.90;;;;;;5372258;26;20244;-85
2024/04/09 06:52:05;;;;;;;9.63;5.33;;;15.30;99.90;;;;;;5372141;26;20236;-87
2024/04/09 06:54:34;;;;;;;9.50;5.40;;;15.20;99.90;;;;;;5354610;26;20328;-87
2024/04/09 06:57:00;;;;;;;7.67;4.97;;;15.30;99.90;;;;;;5362943;26;20284;-87
2024/04/09 06:59:29;;;;;;;7.33;4.50;;;15.20;99.90;;;;;;5371871;26;20237;-86
2024/04/09 07:01:55;;;;;;;6.87;4.20;;;15.30;99.90;;;;;;5360685;26;20249;-87
2024/04/09 07:04:24;;;;;;;6.87;4.80;;;15.40;99.90;;;;;;5369675;26;20793;-87
2024/04/09 07:06:50;;;;;;;7.27;4.27;;;15.40;99.90;;;;;;5364928;26;20238;-86
2024/04/09 07:09:22;;;;;;;5.10;4.30;;;15.40;99.90;;;;;;5368610;26;20259;-86
2024/04/09 07:11:48;;;;;;;7.93;5.07;;;15.50;99.90;;;;;;5370433;26;20236;-85
2024/04/09 07:14:17;;;;;;;6.17;4.33;;;15.50;99.90;;;;;;5371772;26;20304;-86
2024/04/09 07:16:43;;;;;;;8.50;4.00;;;15.40;99.90;;;;;;5363289;26;20237;-87
2024/04/09 07:19:12;;;;;;;8.20;4.97;;;15.40;99.90;;;;;;5370159;26;20901;-87
2024/04/09 07:21:38;;;;;;;6.23;4.53;;;15.30;99.90;;;;;;5369218;26;20728;-86
2024/04/09 07:24:08;;;;;;;8.70;5.17;;;15.30;99.90;;;;;;5364989;26;20248;-85
2024/04/09 07:26:37;;;;;;;10.00;5.43;;;15.30;99.90;;;;;;5374130;26;20326;-87
2024/04/09 07:29:05;;;;;;;7.93;4.83;;;15.20;99.90;;;;;;5380522;26;20246;-84
2024/04/09 07:31:31;;;;;;;7.10;5.53;;;15.20;99.90;;;;;;5378343;26;20232;-85
2024/04/09 07:34:00;;;;;;;7.17;5.20;;;15.10;99.90;;;;;;5380004;26;20282;-84
2024/04/09 07:36:26;;;;;;;10.10;5.63;;;15.00;99.90;;;;;;5345852;26;20560;-84
2024/04/09 07:38:55;;;;;;;10.00;6.10;;;14.90;99.90;;;;;;5345240;26;20261;-85
2024/04/09 07:41:22;;;;;;;9.33;5.43;;;14.90;99.90;;;;;;5382559;26;20341;-86
2024/04/09 07:43:55;;;;;;;7.20;5.30;;;14.90;99.90;;;;;;5382752;26;20275;-88
2024/04/09 07:46:21;;;;;;;8.47;5.23;;;15.00;99.90;;;;;;5382080;26;20323;-85
2024/04/09 07:48:50;;;;;;;7.20;5.57;;;15.10;99.90;;;;;;5359190;26;20629;-85
2024/04/09 07:51:16;;;;;;;9.27;5.43;;;15.20;99.90;;;;;;5346691;26;20264;-84
2024/04/09 07:53:45;;;;;;;10.00;6.07;;;15.20;99.90;;;;;;5346038;26;20226;-85
2024/04/09 07:56:12;;;;;;;9.80;5.70;;;15.20;99.90;;;;;;5366942;26;20263;-86
2024/04/09 07:58:41;;;;;;;6.70;5.20;;;15.20;99.90;;;;;;5371140;26;20323;-86
2024/04/09 08:01:09;;;;;;;7.50;5.00;;;15.20;99.90;;;;;;5375144;26;20609;-86
2024/04/09 08:03:38;;;;;;;8.43;5.57;;;15.20;99.90;;;;;;5365166;26;20346;-86
2024/04/09 08:06:06;;;;;;;11.80;6.10;;;15.20;99.90;;;;;;5362858;26;20232;-86
2024/04/09 08:08:34;;;;;;;8.03;5.93;;;15.20;99.90;;;;;;5365378;26;20236;-86
2024/04/09 08:11:00;;;;;;;11.40;6.43;;;15.20;99.90;;;;;;5360171;26;20720;-86
2024/04/09 08:13:29;;;;;;;11.87;7.03;;;15.10;99.90;;;;;;5369184;26;20282;-86
2024/04/09 08:15:56;;;;;;;12.27;7.10;;;15.10;99.90;;;;;;5374307;26;20283;-86
2024/04/09 08:18:27;;;;;;;9.13;6.80;;;15.00;99.90;;;;;;5374315;26;20240;-86
2024/04/09 08:20:53;;;;;;;9.97;6.00;;;15.00;99.90;;;;;;5362049;26;20233;-86
2024/04/09 08:23:22;;;;;;;9.80;6.40;;;15.00;99.90;;;;;;5362920;26;20244;-86
2024/04/09 08:25:49;;;;;;;8.67;6.73;;;14.90;99.90;;;;;;5375820;26;20244;-86
2024/04/09 08:28:18;;;;;;;9.30;7.40;;;15.00;99.90;;;;;;5372799;26;20311;-86
2024/04/09 08:30:44;;;;;;;7.43;6.50;;;15.10;99.90;;;;;;5352774;26;20614;-86
2024/04/09 08:33:13;;;;;;;10.50;6.40;;;15.10;99.90;;;;;;5372401;26;20295;-86
2024/04/09 08:35:45;;;;;;;10.67;6.70;;;15.10;99.90;;;;;;5372487;26;20279;-86
2024/04/09 08:38:14;;;;;;;9.37;6.50;;;15.00;99.90;;;;;;5365337;26;20744;-86
2024/04/09 08:40:40;;;;;;;7.80;6.37;;;15.00;99.90;;;;;;5367203;26;20271;-86
2024/04/09 08:43:09;;;;;;;9.13;6.63;;;14.90;99.90;;;;;;5373887;26;20244;-85
2024/04/09 08:45:36;;;;;;;12.93;7.07;;;15.00;99.90;;;;;;5384087;26;20751;-84
2024/04/09 08:48:09;;;;;;;9.57;6.90;;;15.20;99.90;;;;;;5353681;26;20233;-85
2024/04/09 08:50:37;;;;;;;10.73;7.13;;;15.10;99.90;;;;;;5348456;26;20226;-84
2024/04/09 08:53:09;;;;;;;9.97;7.17;;;15.10;99.90;;;;;;5348109;26;20221;-84
2024/04/09 08:55:36;;;;;;;12.23;7.43;;;15.10;99.90;;;;;;5348127;26;20284;-84
2024/04/09 08:58:05;;;;;;;9.37;6.60;;;15.10;99.90;;;;;;5348076;26;20305;-85
2024/04/09 09:00:32;;;;;;;9.53;6.63;;;15.00;99.90;;;;;;5347911;26;20229;-84
2024/04/09 09:03:00;;;;;;;9.77;7.17;;;15.00;99.90;;;;;;5379060;26;20244;-85
2024/04/09 09:05:26;;;;;;;9.70;7.20;;;15.00;99.90;;;;;;5382168;26;20291;-88
2024/04/09 09:08:01;;;;;;;10.17;7.60;;;15.00;99.90;;;;;;5382230;26;20232;-86
2024/04/09 09:10:30;;;;;;;8.73;7.83;;;15.00;99.90;;;;;;5382255;26;20547;-85
2024/04/09 09:13:02;;;;;;;11.83;7.73;;;14.90;99.90;;;;;;5381911;26;20228;-84
2024/04/09 09:15:28;;;;;;;13.13;7.57;;;15.00;99.90;;;;;;5382047;26;20240;-84
2024/04/09 09:17:56;;;;;;;10.93;7.43;;;14.90;99.90;;;;;;5382916;26;20560;-84
2024/04/09 09:20:23;;;;;;;9.40;7.30;;;14.90;99.90;;;;;;5382391;26;20262;-89
2024/04/09 09:22:52;;;;;;;8.27;5.70;;;14.70;99.90;;;;;;5382526;26;20645;-85
2024/04/09 09:25:21;;;;;;;6.97;5.10;;;14.60;99.90;;;;;;5382239;26;20240;-84
2024/04/09 09:28:06;;;;;;;7.90;5.17;;;14.60;99.90;;;;;;5381758;26;20308;-85
2024/04/09 09:30:39;;;;;;;11.20;5.17;;;14.50;99.90;;;;;;5361190;26;20233;-84
2024/04/09 09:33:14;;;;;;;8.73;4.90;;;14.50;99.90;;;;;;5350851;26;20268;-87
2024/04/09 09:35:48;;;;;;;8.47;5.30;;;14.40;99.90;;;;;;5347347;26;20580;-84
2024/04/09 09:38:17;;;;;;;7.37;5.00;;;14.40;99.90;;;;;;5379739;26;20248;-85
2024/04/09 09:40:46;;;;;;;9.50;4.83;;;14.30;99.90;;;;;;5383614;26;20232;-85
2024/04/09 09:43:18;;;;;;;6.73;4.47;;;14.30;99.90;;;;;;5383278;26;20327;-85
2024/04/09 09:45:44;;;;;;;9.57;5.00;;;14.20;99.90;;;;;;5383409;26;20241;-84
2024/04/09 09:48:14;;;;;;;8.37;5.13;;;14.20;99.90;;;;;;5382066;26;20303;-84
2024/04/09 09:50:41;;;;;;;7.23;4.80;;;14.10;99.90;;;;;;5382979;26;20267;-84
2024/04/09 09:53:10;;;;;;;8.07;4.37;;;14.10;99.90;;;;;;5382578;26;20288;-84
2024/04/09 09:55:37;;;;;;;7.33;5.07;;;14.10;99.90;;;;;;5382170;26;20275;-84
2024/04/09 09:58:07;;;;;;;7.30;4.90;;;14.20;99.90;;;;;;5382958;26;20232;-84
2024/04/09 10:00:37;;;;;;;7.67;4.87;;;14.30;99.90;;;;;;5382531;26;20634;-84
2024/04/09 10:03:07;;;;;;;8.60;5.07;;;14.40;99.90;;;;;;5382318;26;20881;-84
2024/04/09 10:05:34;;;;;;;6.17;4.90;;;14.50;99.90;;;;;;5382225;26;20295;-84
2024/04/09 10:08:03;;;;;;;7.60;5.50;;;14.50;99.90;;;;;;5382381;26;20267;-85
2024/04/09 10:10:30;;;;;;;10.30;5.83;;;14.50;99.90;;;;;;5382193;26;20308;-84
2024/04/09 10:13:10;;;;;;;9.37;6.10;;;14.50;99.90;;;;;;5381646;26;20240;-85
2024/04/09 10:15:43;;;;;;;8.33;6.30;;;14.60;99.90;;;;;;5381889;26;20738;-85
2024/04/09 10:18:12;;;;;;;8.53;5.90;;;14.50;99.90;;;;;;5383415;26;20727;-84
2024/04/09 10:20:38;;;;;;;10.43;6.17;;;14.50;99.90;;;;;;5397322;26;20314;-95
2024/04/09 10:23:08;;;;;;;12.63;7.10;;;14.50;99.90;;;;;;5404922;26;20224;-86
2024/04/09 10:25:36;;;;;;;10.97;7.40;;;14.50;99.90;;;;;;5379759;26;20732;-87
2024/04/09 10:28:07;;;;;;;12.20;7.93;;;14.60;99.90;;;;;;5424843;21;20608;-81
2024/04/09 10:30:34;;;;;;;11.97;8.73;;;14.60;99.90;;;;;;5408549;26;20240;-82
2024/04/09 10:33:07;;;;;;;12.87;8.47;;;14.60;99.90;;;;;;5414589;26;20247;-83
2024/04/09 10:35:33;;;;;;;16.70;8.60;;;14.60;99.90;;;;;;5415853;26;20278;-83
2024/04/09 10:38:05;;;;;;;14.73;8.67;;;14.60;99.90;;;;;;5409637;26;20239;-83
2024/04/09 10:40:33;;;;;;;11.60;8.80;;;14.60;99.90;;;;;;5392702;26;20765;-83
2024/04/09 10:43:02;;;;;;;13.17;9.53;;;14.70;99.90;;;;;;5392490;26;20735;-83
2024/04/09 10:45:29;;;;;;;12.53;8.53;;;14.70;99.90;;;;;;5389624;26;20236;-83
2024/04/09 10:47:58;;;;;;;10.23;7.33;;;14.70;99.90;;;;;;5395246;26;20231;-83
2024/04/09 10:50:27;;;;;;;8.43;6.43;;;14.60;99.90;;;;;;5402453;26;20259;-83
2024/04/09 10:52:56;;;;;;;9.27;6.40;;;14.60;99.90;;;;;;5381049;26;20279;-82
2024/04/09 10:55:22;;;;;;;7.07;5.50;;;14.60;99.90;;;;;;5404948;26;20278;-82
2024/04/09 10:57:53;;;;;;;10.83;5.90;;;14.60;99.90;;;;;;5384327;26;20233;-83
2024/04/09 11:00:20;;;;;;;6.53;5.23;;;14.50;99.90;;;;;;5402305;26;20562;-83
2024/04/09 11:02:49;;;;;;;5.07;4.13;;;14.40;99.90;;;;;;5406828;26;20598;-83
2024/04/09 11:05:17;;;;;;;5.30;4.00;;;14.20;99.90;;;;;;5408281;26;20290;-83
2024/04/09 11:07:50;;;;;;;3.77;2.40;;;14.20;99.90;;;;;;5393315;26;20343;-82
2024/04/09 11:10:17;;;;;;;2.80;2.53;;;14.00;99.90;;;;;;5399863;26;20233;-82
2024/04/09 11:12:48;;;;;;;4.00;2.60;;;13.80;99.90;;;;;;5387044;26;20278;-82
2024/04/09 11:15:15;;;;;;;3.43;2.33;;;13.70;99.90;;;;;;5407474;26;20295;-82
2024/04/09 11:17:43;;;;;;;1.90;1.47;;;13.60;99.90;;;;;;5390915;26;20584;-82
2024/04/09 11:20:11;;;;;;;3.37;1.90;;;13.50;99.90;;;;;;5406525;26;20762;-83
2024/04/09 11:22:49;;;;;;;3.63;1.73;;;13.40;99.90;;;;;;5395835;26;20233;-83
2024/04/09 11:25:19;;;;;;;2.57;1.90;;;13.40;99.90;;;;;;5404462;26;20250;-83
2024/04/09 11:27:50;;;;;;;3.27;1.97;;;13.40;99.90;;;;;;5400504;26;20248;-83
2024/04/09 11:30:23;;;;;;;3.33;1.87;;;13.40;99.90;;;;;;5403329;26;20227;-83
2024/04/09 11:32:54;;;;;;;3.53;1.63;;;13.40;99.90;;;;;;5395525;26;20232;-83
2024/04/09 11:35:22;;;;;;;3.37;1.90;;;13.40;99.90;;;;;;5400958;26;20243;-82
2024/04/09 11:37:55;;;;;;;5.20;1.47;;;13.40;99.90;;;;;;5391857;26;20244;-82
2024/04/09 11:40:22;;;;;;;2.23;1.70;;;13.30;99.90;;;;;;5393244;26;20279;-82
2024/04/09 11:42:51;;;;;;;2.87;1.83;;;13.30;99.90;;;;;;5407114;26;20244;-82
2024/04/09 11:45:19;;;;;;;2.50;1.80;;;13.20;99.90;;;;;;5395172;26;20223;-82
2024/04/09 11:47:48;;;;;;;2.90;1.80;;;13.30;99.90;;;;;;5405942;26;20341;-82
2024/04/09 11:50:14;;;;;;;4.57;1.93;;;13.30;99.90;;;;;;5405729;26;20235;-83
2024/04/09 11:52:43;;;;;;;1.80;1.10;;;13.30;99.90;;;;;;5381201;26;20240;-84
2024/04/09 11:55:12;;;;;;;4.33;1.50;;;13.20;99.90;;;;;;5408205;26;20266;-83
2024/04/09 11:57:41;;;;;;;1.93;1.20;;;13.20;99.90;;;;;;5399180;26;20589;-83
2024/04/09 12:00:12;;;;;;;4.50;1.40;;;13.20;99.90;;;;;;5396021;26;20616;-83
2024/04/09 12:02:42;;;;;;;1.40;1.23;;;13.20;99.90;;;;;;5400656;26;20485;-84
2024/04/09 12:05:12;;;;;;;5.20;1.20;;;13.20;99.90;;;;;;5402263;26;20231;-83
2024/04/09 12:07:41;;;;;;;4.27;1.20;;;13.20;99.90;;;;;;5394096;26;20231;-85
2024/04/09 12:10:10;;;;;;;3.00;1.40;;;13.20;99.90;;;;;;5391677;26;20290;-85
2024/04/09 12:12:43;;;;;;;1.80;1.20;;;13.20;99.90;;;;;;5404768;26;20234;-85
2024/04/09 12:15:12;;;;;;;5.70;1.30;;;13.20;99.90;;;;;;5407562;26;20231;-86
2024/04/09 12:17:43;;;;;;;2.57;1.40;;;13.20;99.90;;;;;;5410067;26;20338;-84
2024/04/09 12:20:13;;;;;;;3.10;1.13;;;13.20;99.90;;;;;;5403833;26;20232;-85
2024/04/09 12:22:41;;;;;;;5.57;1.53;;;13.20;99.90;;;;;;5394013;26;20235;-84
2024/04/09 12:25:07;;;;;;;2.60;1.20;;;13.20;99.90;;;;;;5398152;26;20275;-85
2024/04/09 12:27:36;;;;;;;1.90;1.33;;;13.30;99.90;;;;;;5410453;26;20224;-84
2024/04/09 12:40:57;;;;;;;1.83;1.50;;;13.40;99.90;;;;;;5153969;27;20281;-86
2024/04/09 12:54:34;;;;;;;4.93;1.73;;;13.80;99.90;;;;;;4991985;28;20780;-86
2024/04/09 13:31:29;;;;;;;3.80;1.40;;;13.90;99.90;;;;;;5075588;28;20288;-87
2024/04/09 15:40:45;;;;;;;2.00;0.77;;;14.00;99.90;;;;;;5412294;26;20705;-85
2024/04/09 15:43:39;;;;;;;2.73;0.70;;;14.00;99.90;;;;;;5405406;26;20273;-85
2024/04/09 15:46:16;;;;;;;1.80;0.73;;;14.00;99.90;;;;;;5413892;26;20269;-85
2024/04/09 15:48:41;;;;;;;3.60;0.70;;;14.00;99.90;;;;;;5402571;26;20679;-85
2024/04/09 15:51:12;;;;;;;1.70;0.83;;;14.00;99.90;;;;;;5380056;26;20282;-84
2024/04/09 15:53:39;;;;;;;2.93;0.73;;;14.00;99.90;;;;;;5403282;26;20235;-83